Ocean Pines, Maryland
Current Conditions -  °F | °C
As of 8:53 PM on Wednesday 26 Nov 2014 (Local Time) from KOXB Reporting Station
Broken Clouds Broken Clouds  
Wind Chill: 30°   Ceiling: 4900
Heat Index: 38°   Visibility: 10mi
Dew Point: 35°   Wind: 14mph
Humidity: 89%   Direction: 340°NNW
Pressure: 29.86"   Gusts: 23mph
Location:  38.3252°N, 75.2176°W
Report Text: KOXB 270153Z AUTO 34012G20KT 10SM SCT014 SCT032 BKN049 03/02 A2986 RMK AO2 PK WND 34028/0055 SLP112 T00330017 TSNO PNO $
Loading
Personal Weather Stations






























Interactive Weather Map New forecast layout! Learn more

10-Day Weather Forecast

Advertisements
Track Severe Weather on mobile